sensor_id;sensor_type;location;lat;lon;timestamp;temperature;humidity
20005;DHT22;69160;45.498;-73.582;2023-04-12T00:00:00;21.40;54.60
20005;DHT22;69160;45.498;-73.582;2023-04-12T00:02:26;21.40;54.60
20005;DHT22;69160;45.498;-73.582;2023-04-12T00:04:52;21.30;54.50
20005;DHT22;69160;45.498;-73.582;2023-04-12T00:07:23;21.40;54.60
20005;DHT22;69160;45.498;-73.582;2023-04-12T00:09:50;21.40;54.60
20005;DHT22;69160;45.498;-73.582;2023-04-12T00:12:19;21.40;54.60
20005;DHT22;69160;45.498;-73.582;2023-04-12T00:14:46;21.40;54.60
20005;DHT22;69160;45.498;-73.582;2023-04-12T00:17:13;21.30;54.60
20005;DHT22;69160;45.498;-73.582;2023-04-12T00:19:40;21.30;54.80
20005;DHT22;69160;45.498;-73.582;2023-04-12T00:22:08;21.40;55.00
20005;DHT22;69160;45.498;-73.582;2023-04-12T00:24:35;21.50;55.80
20005;DHT22;69160;45.498;-73.582;2023-04-12T00:27:01;21.60;56.80
20005;DHT22;69160;45.498;-73.582;2023-04-12T00:29:28;21.60;56.30
20005;DHT22;69160;45.498;-73.582;2023-04-12T00:31:54;21.60;56.10
20005;DHT22;69160;45.498;-73.582;2023-04-12T00:34:20;21.60;56.10
20005;DHT22;69160;45.498;-73.582;2023-04-12T00:36:47;21.60;56.00
20005;DHT22;69160;45.498;-73.582;2023-04-12T00:39:13;21.60;55.90
20005;DHT22;69160;45.498;-73.582;2023-04-12T00:41:39;21.60;55.90
20005;DHT22;69160;45.498;-73.582;2023-04-12T00:44:05;21.60;55.90
20005;DHT22;69160;45.498;-73.582;2023-04-12T00:46:33;21.50;55.70
20005;DHT22;69160;45.498;-73.582;2023-04-12T00:49:01;21.50;55.60
20005;DHT22;69160;45.498;-73.582;2023-04-12T00:51:28;21.50;55.40
20005;DHT22;69160;45.498;-73.582;2023-04-12T00:53:59;21.50;55.40
20005;DHT22;69160;45.498;-73.582;2023-04-12T00:56:27;21.50;55.40
20005;DHT22;69160;45.498;-73.582;2023-04-12T00:58:54;21.50;55.20
20005;DHT22;69160;45.498;-73.582;2023-04-12T01:01:20;21.40;55.10
20005;DHT22;69160;45.498;-73.582;2023-04-12T01:03:51;21.40;55.60
20005;DHT22;69160;45.498;-73.582;2023-04-12T01:15:10;21.40;54.80
20005;DHT22;69160;45.498;-73.582;2023-04-12T01:18:02;21.40;54.70
20005;DHT22;69160;45.498;-73.582;2023-04-12T01:20:36;21.40;54.70
20005;DHT22;69160;45.498;-73.582;2023-04-12T01:23:16;21.40;54.60
20005;DHT22;69160;45.498;-73.582;2023-04-12T01:25:51;21.40;54.50
20005;DHT22;69160;45.498;-73.582;2023-04-12T01:28:31;21.40;54.40
20005;DHT22;69160;45.498;-73.582;2023-04-12T01:31:01;21.40;54.30
20005;DHT22;69160;45.498;-73.582;2023-04-12T01:33:28;21.40;54.30
20005;DHT22;69160;45.498;-73.582;2023-04-12T01:36:06;21.40;54.20
20005;DHT22;69160;45.498;-73.582;2023-04-12T01:38:34;21.40;54.10
20005;DHT22;69160;45.498;-73.582;2023-04-12T01:41:00;21.40;54.10
20005;DHT22;69160;45.498;-73.582;2023-04-12T01:43:26;21.40;53.90
20005;DHT22;69160;45.498;-73.582;2023-04-12T01:45:53;21.40;53.80
20005;DHT22;69160;45.498;-73.582;2023-04-12T01:48:19;21.30;53.90
20005;DHT22;69160;45.498;-73.582;2023-04-12T01:51:06;21.40;54.30
20005;DHT22;69160;45.498;-73.582;2023-04-12T01:53:38;21.40;54.70
20005;DHT22;69160;45.498;-73.582;2023-04-12T01:56:09;21.40;54.80
20005;DHT22;69160;45.498;-73.582;2023-04-12T01:58:42;21.40;54.30
20005;DHT22;69160;45.498;-73.582;2023-04-12T02:01:11;21.40;54.00
20005;DHT22;69160;45.498;-73.582;2023-04-12T02:03:44;21.40;54.40
20005;DHT22;69160;45.498;-73.582;2023-04-12T02:06:11;21.30;53.60
20005;DHT22;69160;45.498;-73.582;2023-04-12T02:08:37;21.30;53.50
20005;DHT22;69160;45.498;-73.582;2023-04-12T02:11:08;21.30;53.40
20005;DHT22;69160;45.498;-73.582;2023-04-12T02:13:34;21.30;53.30
20005;DHT22;69160;45.498;-73.582;2023-04-12T02:16:00;21.30;53.20
20005;DHT22;69160;45.498;-73.582;2023-04-12T02:18:27;21.30;53.20
20005;DHT22;69160;45.498;-73.582;2023-04-12T02:20:54;21.30;53.00
20005;DHT22;69160;45.498;-73.582;2023-04-12T02:23:20;21.30;53.60
20005;DHT22;69160;45.498;-73.582;2023-04-12T02:25:47;21.20;52.80
20005;DHT22;69160;45.498;-73.582;2023-04-12T02:28:13;21.20;53.40
20005;DHT22;69160;45.498;-73.582;2023-04-12T02:30:39;21.20;52.80
20005;DHT22;69160;45.498;-73.582;2023-04-12T02:33:08;21.20;52.70
20005;DHT22;69160;45.498;-73.582;2023-04-12T02:35:35;21.20;52.70
20005;DHT22;69160;45.498;-73.582;2023-04-12T02:38:02;21.20;52.70
20005;DHT22;69160;45.498;-73.582;2023-04-12T02:40:38;21.20;52.70
20005;DHT22;69160;45.498;-73.582;2023-04-12T02:43:05;21.20;52.60
20005;DHT22;69160;45.498;-73.582;2023-04-12T02:45:31;21.20;52.60
20005;DHT22;69160;45.498;-73.582;2023-04-12T02:47:58;21.20;52.60
20005;DHT22;69160;45.498;-73.582;2023-04-12T02:50:24;21.20;52.60
20005;DHT22;69160;45.498;-73.582;2023-04-12T02:52:51;21.20;52.50
20005;DHT22;69160;45.498;-73.582;2023-04-12T02:55:18;21.20;52.50
20005;DHT22;69160;45.498;-73.582;2023-04-12T02:57:44;21.20;52.50
20005;DHT22;69160;45.498;-73.582;2023-04-12T03:00:11;21.10;52.40
20005;DHT22;69160;45.498;-73.582;2023-04-12T03:02:38;21.20;52.50
20005;DHT22;69160;45.498;-73.582;2023-04-12T03:05:04;21.10;52.40
20005;DHT22;69160;45.498;-73.582;2023-04-12T03:07:32;21.10;52.40
20005;DHT22;69160;45.498;-73.582;2023-04-12T03:09:58;21.10;52.40
20005;DHT22;69160;45.498;-73.582;2023-04-12T03:12:24;21.20;52.40
20005;DHT22;69160;45.498;-73.582;2023-04-12T03:14:50;21.10;52.30
20005;DHT22;69160;45.498;-73.582;2023-04-12T03:17:17;21.10;52.30
20005;DHT22;69160;45.498;-73.582;2023-04-12T03:19:43;21.10;52.30
20005;DHT22;69160;45.498;-73.582;2023-04-12T03:22:09;21.10;52.20
20005;DHT22;69160;45.498;-73.582;2023-04-12T03:24:35;21.10;52.20
20005;DHT22;69160;45.498;-73.582;2023-04-12T03:27:03;21.10;52.20
20005;DHT22;69160;45.498;-73.582;2023-04-12T03:29:30;21.10;52.20
20005;DHT22;69160;45.498;-73.582;2023-04-12T03:31:57;21.10;52.20
20005;DHT22;69160;45.498;-73.582;2023-04-12T03:34:25;21.10;52.20
20005;DHT22;69160;45.498;-73.582;2023-04-12T03:37:00;21.10;52.10
20005;DHT22;69160;45.498;-73.582;2023-04-12T03:39:27;21.10;52.10
20005;DHT22;69160;45.498;-73.582;2023-04-12T03:41:54;21.10;52.10
20005;DHT22;69160;45.498;-73.582;2023-04-12T03:44:20;21.10;52.10
20005;DHT22;69160;45.498;-73.582;2023-04-12T03:46:47;21.10;52.10
20005;DHT22;69160;45.498;-73.582;2023-04-12T03:49:13;21.10;52.10
20005;DHT22;69160;45.498;-73.582;2023-04-12T03:51:41;21.10;52.00
20005;DHT22;69160;45.498;-73.582;2023-04-12T03:54:09;21.10;52.00
20005;DHT22;69160;45.498;-73.582;2023-04-12T03:56:35;21.10;51.90
20005;DHT22;69160;45.498;-73.582;2023-04-12T03:59:06;21.10;51.90
20005;DHT22;69160;45.498;-73.582;2023-04-12T04:01:33;21.10;51.90
20005;DHT22;69160;45.498;-73.582;2023-04-12T04:04:00;21.10;51.90
20005;DHT22;69160;45.498;-73.582;2023-04-12T04:06:27;21.10;51.90
20005;DHT22;69160;45.498;-73.582;2023-04-12T04:08:55;21.10;51.90
20005;DHT22;69160;45.498;-73.582;2023-04-12T04:11:22;21.00;51.70
20005;DHT22;69160;45.498;-73.582;2023-04-12T04:13:51;21.00;51.70
20005;DHT22;69160;45.498;-73.582;2023-04-12T04:16:17;21.00;51.70
20005;DHT22;69160;45.498;-73.582;2023-04-12T04:18:43;21.00;51.70
20005;DHT22;69160;45.498;-73.582;2023-04-12T04:21:09;21.00;51.70
20005;DHT22;69160;45.498;-73.582;2023-04-12T04:23:35;21.00;52.20
20005;DHT22;69160;45.498;-73.582;2023-04-12T04:26:05;21.00;51.50
20005;DHT22;69160;45.498;-73.582;2023-04-12T04:28:35;21.00;51.50
20005;DHT22;69160;45.498;-73.582;2023-04-12T04:31:04;21.00;51.50
20005;DHT22;69160;45.498;-73.582;2023-04-12T04:33:32;21.00;51.50
20005;DHT22;69160;45.498;-73.582;2023-04-12T04:35:58;21.00;51.50
20005;DHT22;69160;45.498;-73.582;2023-04-12T04:38:24;21.00;51.50
20005;DHT22;69160;45.498;-73.582;2023-04-12T04:40:51;21.00;51.40
20005;DHT22;69160;45.498;-73.582;2023-04-12T04:43:20;21.00;51.40
20005;DHT22;69160;45.498;-73.582;2023-04-12T04:45:51;21.00;51.30
20005;DHT22;69160;45.498;-73.582;2023-04-12T04:48:19;21.00;51.30
20005;DHT22;69160;45.498;-73.582;2023-04-12T04:50:46;21.00;51.30
20005;DHT22;69160;45.498;-73.582;2023-04-12T04:53:12;21.00;51.30
20005;DHT22;69160;45.498;-73.582;2023-04-12T04:55:38;20.90;51.20
20005;DHT22;69160;45.498;-73.582;2023-04-12T04:58:05;20.90;51.20
20005;DHT22;69160;45.498;-73.582;2023-04-12T05:00:32;21.00;51.80
20005;DHT22;69160;45.498;-73.582;2023-04-12T05:03:00;20.90;51.10
20005;DHT22;69160;45.498;-73.582;2023-04-12T05:05:28;20.90;51.10
20005;DHT22;69160;45.498;-73.582;2023-04-12T05:07:55;20.90;51.00
20005;DHT22;69160;45.498;-73.582;2023-04-12T05:10:22;21.00;51.00
20005;DHT22;69160;45.498;-73.582;2023-04-12T05:12:48;20.90;50.90
20005;DHT22;69160;45.498;-73.582;2023-04-12T05:15:14;20.90;50.80
20005;DHT22;69160;45.498;-73.582;2023-04-12T05:17:41;20.90;50.70
20005;DHT22;69160;45.498;-73.582;2023-04-12T05:20:07;20.90;50.70
20005;DHT22;69160;45.498;-73.582;2023-04-12T05:22:35;20.90;50.60
20005;DHT22;69160;45.498;-73.582;2023-04-12T05:25:01;20.90;50.50
20005;DHT22;69160;45.498;-73.582;2023-04-12T05:27:29;20.90;50.60
20005;DHT22;69160;45.498;-73.582;2023-04-12T05:29:56;20.90;50.50
20005;DHT22;69160;45.498;-73.582;2023-04-12T05:32:26;20.90;50.40
20005;DHT22;69160;45.498;-73.582;2023-04-12T05:34:52;20.90;50.40
20005;DHT22;69160;45.498;-73.582;2023-04-12T05:37:18;20.90;50.40
20005;DHT22;69160;45.498;-73.582;2023-04-12T05:39:44;20.90;50.30
20005;DHT22;69160;45.498;-73.582;2023-04-12T05:42:11;20.90;50.30
20005;DHT22;69160;45.498;-73.582;2023-04-12T05:44:38;20.90;50.30
20005;DHT22;69160;45.498;-73.582;2023-04-12T05:47:04;20.90;50.20
20005;DHT22;69160;45.498;-73.582;2023-04-12T05:49:30;20.90;50.30
20005;DHT22;69160;45.498;-73.582;2023-04-12T05:51:57;20.90;50.20
20005;DHT22;69160;45.498;-73.582;2023-04-12T05:54:24;20.90;50.20
20005;DHT22;69160;45.498;-73.582;2023-04-12T05:56:50;20.90;50.20
20005;DHT22;69160;45.498;-73.582;2023-04-12T05:59:19;20.90;50.10
20005;DHT22;69160;45.498;-73.582;2023-04-12T06:01:45;20.90;50.10
20005;DHT22;69160;45.498;-73.582;2023-04-12T06:04:12;20.90;50.10
20005;DHT22;69160;45.498;-73.582;2023-04-12T06:06:41;20.80;50.00
20005;DHT22;69160;45.498;-73.582;2023-04-12T06:09:08;20.80;49.90
20005;DHT22;69160;45.498;-73.582;2023-04-12T06:11:34;20.80;50.00
20005;DHT22;69160;45.498;-73.582;2023-04-12T06:14:03;20.90;50.00
20005;DHT22;69160;45.498;-73.582;2023-04-12T06:16:30;20.90;50.00
20005;DHT22;69160;45.498;-73.582;2023-04-12T06:18:56;20.80;49.90
20005;DHT22;69160;45.498;-73.582;2023-04-12T06:21:23;20.80;49.80
20005;DHT22;69160;45.498;-73.582;2023-04-12T06:23:49;20.80;49.70
20005;DHT22;69160;45.498;-73.582;2023-04-12T06:26:15;20.80;49.80
20005;DHT22;69160;45.498;-73.582;2023-04-12T06:28:41;20.80;49.80
20005;DHT22;69160;45.498;-73.582;2023-04-12T06:31:09;20.80;49.80
20005;DHT22;69160;45.498;-73.582;2023-04-12T06:33:35;20.80;49.80
20005;DHT22;69160;45.498;-73.582;2023-04-12T06:36:01;20.80;49.80
20005;DHT22;69160;45.498;-73.582;2023-04-12T06:38:28;20.80;49.80
20005;DHT22;69160;45.498;-73.582;2023-04-12T06:40:54;20.80;49.70
20005;DHT22;69160;45.498;-73.582;2023-04-12T06:43:20;20.80;49.80
20005;DHT22;69160;45.498;-73.582;2023-04-12T06:45:47;20.80;49.80
20005;DHT22;69160;45.498;-73.582;2023-04-12T06:48:17;20.80;49.70
20005;DHT22;69160;45.498;-73.582;2023-04-12T06:50:46;20.80;49.70
20005;DHT22;69160;45.498;-73.582;2023-04-12T06:53:12;20.80;49.70
20005;DHT22;69160;45.498;-73.582;2023-04-12T06:55:38;20.80;49.70
20005;DHT22;69160;45.498;-73.582;2023-04-12T06:58:05;20.80;49.70
20005;DHT22;69160;45.498;-73.582;2023-04-12T07:00:31;20.80;49.70
20005;DHT22;69160;45.498;-73.582;2023-04-12T07:02:57;20.80;49.70
20005;DHT22;69160;45.498;-73.582;2023-04-12T07:05:23;20.80;49.70
20005;DHT22;69160;45.498;-73.582;2023-04-12T07:07:49;20.80;49.70
20005;DHT22;69160;45.498;-73.582;2023-04-12T07:10:16;20.80;49.70
20005;DHT22;69160;45.498;-73.582;2023-04-12T07:12:42;20.80;49.60
20005;DHT22;69160;45.498;-73.582;2023-04-12T07:15:08;20.80;49.70
20005;DHT22;69160;45.498;-73.582;2023-04-12T07:17:34;20.80;49.70
20005;DHT22;69160;45.498;-73.582;2023-04-12T07:20:01;20.70;49.60
20005;DHT22;69160;45.498;-73.582;2023-04-12T07:22:27;20.80;49.70
20005;DHT22;69160;45.498;-73.582;2023-04-12T07:24:53;20.70;49.60
20005;DHT22;69160;45.498;-73.582;2023-04-12T07:27:19;20.80;49.70
20005;DHT22;69160;45.498;-73.582;2023-04-12T07:29:47;20.70;49.60
20005;DHT22;69160;45.498;-73.582;2023-04-12T07:32:13;20.80;49.70
20005;DHT22;69160;45.498;-73.582;2023-04-12T07:34:39;20.70;49.60
20005;DHT22;69160;45.498;-73.582;2023-04-12T07:37:05;20.80;49.70
20005;DHT22;69160;45.498;-73.582;2023-04-12T07:39:32;20.70;49.60
20005;DHT22;69160;45.498;-73.582;2023-04-12T07:41:59;20.70;49.60
20005;DHT22;69160;45.498;-73.582;2023-04-12T07:44:26;20.70;49.60
20005;DHT22;69160;45.498;-73.582;2023-04-12T07:46:52;20.70;49.70
20005;DHT22;69160;45.498;-73.582;2023-04-12T07:49:18;20.70;49.70
20005;DHT22;69160;45.498;-73.582;2023-04-12T07:51:44;20.70;49.70
20005;DHT22;69160;45.498;-73.582;2023-04-12T07:54:10;20.70;49.70
20005;DHT22;69160;45.498;-73.582;2023-04-12T07:56:37;20.70;49.70
20005;DHT22;69160;45.498;-73.582;2023-04-12T07:59:04;20.70;49.70
20005;DHT22;69160;45.498;-73.582;2023-04-12T08:01:30;20.70;49.70
20005;DHT22;69160;45.498;-73.582;2023-04-12T08:03:57;20.70;49.70
20005;DHT22;69160;45.498;-73.582;2023-04-12T08:06:23;20.70;49.70
20005;DHT22;69160;45.498;-73.582;2023-04-12T08:08:49;20.70;49.80
20005;DHT22;69160;45.498;-73.582;2023-04-12T08:11:15;20.70;49.70
20005;DHT22;69160;45.498;-73.582;2023-04-12T08:13:41;20.70;49.70
20005;DHT22;69160;45.498;-73.582;2023-04-12T08:16:07;20.70;49.70
20005;DHT22;69160;45.498;-73.582;2023-04-12T08:18:33;20.60;49.70
20005;DHT22;69160;45.498;-73.582;2023-04-12T08:21:00;20.60;49.70
20005;DHT22;69160;45.498;-73.582;2023-04-12T08:23:27;20.60;49.80
20005;DHT22;69160;45.498;-73.582;2023-04-12T08:25:53;20.70;49.80
20005;DHT22;69160;45.498;-73.582;2023-04-12T08:28:28;20.70;49.80
20005;DHT22;69160;45.498;-73.582;2023-04-12T08:30:55;20.60;49.70
20005;DHT22;69160;45.498;-73.582;2023-04-12T08:33:21;20.60;49.70
20005;DHT22;69160;45.498;-73.582;2023-04-12T08:35:48;20.60;49.70
20005;DHT22;69160;45.498;-73.582;2023-04-12T08:38:14;20.60;49.80
20005;DHT22;69160;45.498;-73.582;2023-04-12T08:40:42;20.60;49.70
20005;DHT22;69160;45.498;-73.582;2023-04-12T08:43:11;20.60;49.70
20005;DHT22;69160;45.498;-73.582;2023-04-12T08:45:37;20.60;49.80
20005;DHT22;69160;45.498;-73.582;2023-04-12T08:48:04;20.60;49.80
20005;DHT22;69160;45.498;-73.582;2023-04-12T08:50:31;20.60;49.80
20005;DHT22;69160;45.498;-73.582;2023-04-12T08:52:58;20.60;49.80
20005;DHT22;69160;45.498;-73.582;2023-04-12T08:55:24;20.60;49.80
20005;DHT22;69160;45.498;-73.582;2023-04-12T08:57:52;20.60;49.80
20005;DHT22;69160;45.498;-73.582;2023-04-12T09:00:20;20.60;49.80
20005;DHT22;69160;45.498;-73.582;2023-04-12T09:02:46;20.60;49.80
20005;DHT22;69160;45.498;-73.582;2023-04-12T09:05:14;20.60;49.80
20005;DHT22;69160;45.498;-73.582;2023-04-12T09:07:41;20.60;49.80
20005;DHT22;69160;45.498;-73.582;2023-04-12T09:10:07;20.60;49.80
20005;DHT22;69160;45.498;-73.582;2023-04-12T09:12:33;20.60;49.80
20005;DHT22;69160;45.498;-73.582;2023-04-12T09:15:11;20.60;49.90
20005;DHT22;69160;45.498;-73.582;2023-04-12T09:17:39;20.60;49.80
20005;DHT22;69160;45.498;-73.582;2023-04-12T09:20:26;20.60;49.80
20005;DHT22;69160;45.498;-73.582;2023-04-12T09:22:53;20.60;49.80
20005;DHT22;69160;45.498;-73.582;2023-04-12T09:25:39;20.60;49.90
20005;DHT22;69160;45.498;-73.582;2023-04-12T09:28:26;20.60;49.80
20005;DHT22;69160;45.498;-73.582;2023-04-12T09:30:53;20.60;49.90
20005;DHT22;69160;45.498;-73.582;2023-04-12T09:33:22;20.60;49.90
20005;DHT22;69160;45.498;-73.582;2023-04-12T09:35:48;20.50;49.80
20005;DHT22;69160;45.498;-73.582;2023-04-12T09:38:15;20.60;49.80
20005;DHT22;69160;45.498;-73.582;2023-04-12T09:40:41;20.60;49.80
20005;DHT22;69160;45.498;-73.582;2023-04-12T09:43:07;20.60;49.80
20005;DHT22;69160;45.498;-73.582;2023-04-12T09:45:35;20.50;49.80
20005;DHT22;69160;45.498;-73.582;2023-04-12T09:48:06;20.50;49.70
20005;DHT22;69160;45.498;-73.582;2023-04-12T09:50:32;20.60;49.80
20005;DHT22;69160;45.498;-73.582;2023-04-12T09:53:00;20.50;49.70
20005;DHT22;69160;45.498;-73.582;2023-04-12T09:55:29;20.50;49.70
20005;DHT22;69160;45.498;-73.582;2023-04-12T09:58:00;20.60;49.80
20005;DHT22;69160;45.498;-73.582;2023-04-12T10:00:29;20.60;49.80
20005;DHT22;69160;45.498;-73.582;2023-04-12T10:02:56;20.60;49.90
20005;DHT22;69160;45.498;-73.582;2023-04-12T10:05:23;20.50;49.70
20005;DHT22;69160;45.498;-73.582;2023-04-12T10:07:50;20.50;49.70
20005;DHT22;69160;45.498;-73.582;2023-04-12T10:10:19;20.60;49.80
20005;DHT22;69160;45.498;-73.582;2023-04-12T10:12:46;20.50;49.70
20005;DHT22;69160;45.498;-73.582;2023-04-12T10:15:14;20.50;49.60
20005;DHT22;69160;45.498;-73.582;2023-04-12T10:17:52;20.50;49.80
20005;DHT22;69160;45.498;-73.582;2023-04-12T10:20:20;20.50;49.60
20005;DHT22;69160;45.498;-73.582;2023-04-12T10:22:47;20.60;49.70
20005;DHT22;69160;45.498;-73.582;2023-04-12T10:25:24;20.50;49.60
20005;DHT22;69160;45.498;-73.582;2023-04-12T10:27:51;20.50;49.70
20005;DHT22;69160;45.498;-73.582;2023-04-12T10:30:35;20.50;49.60
20005;DHT22;69160;45.498;-73.582;2023-04-12T10:38:16;20.50;49.60
20005;DHT22;69160;45.498;-73.582;2023-04-12T10:41:20;20.50;49.60
20005;DHT22;69160;45.498;-73.582;2023-04-12T10:43:50;20.50;49.70
20005;DHT22;69160;45.498;-73.582;2023-04-12T10:46:46;20.50;49.60
20005;DHT22;69160;45.498;-73.582;2023-04-12T10:49:14;20.50;49.60
20005;DHT22;69160;45.498;-73.582;2023-04-12T10:56:52;20.50;49.60
20005;DHT22;69160;45.498;-73.582;2023-04-12T10:59:20;20.50;49.60
20005;DHT22;69160;45.498;-73.582;2023-04-12T11:02:08;20.50;49.60
20005;DHT22;69160;45.498;-73.582;2023-04-12T11:04:35;20.50;49.70
20005;DHT22;69160;45.498;-73.582;2023-04-12T11:07:05;20.40;49.60
20005;DHT22;69160;45.498;-73.582;2023-04-12T11:09:38;20.50;49.60
20005;DHT22;69160;45.498;-73.582;2023-04-12T11:19:32;20.40;49.60
20005;DHT22;69160;45.498;-73.582;2023-04-12T11:22:03;20.40;49.60
20005;DHT22;69160;45.498;-73.582;2023-04-12T11:24:30;20.40;49.60
20005;DHT22;69160;45.498;-73.582;2023-04-12T11:26:57;20.40;49.70
20005;DHT22;69160;45.498;-73.582;2023-04-12T11:29:24;20.40;49.70
20005;DHT22;69160;45.498;-73.582;2023-04-12T11:31:51;20.40;49.70
20005;DHT22;69160;45.498;-73.582;2023-04-12T11:34:18;20.40;49.80
20005;DHT22;69160;45.498;-73.582;2023-04-12T11:36:51;20.40;49.80
20005;DHT22;69160;45.498;-73.582;2023-04-12T11:39:18;20.40;49.90
20005;DHT22;69160;45.498;-73.582;2023-04-12T11:41:48;20.40;50.60
20005;DHT22;69160;45.498;-73.582;2023-04-12T11:44:15;20.40;51.00
20005;DHT22;69160;45.498;-73.582;2023-04-12T11:46:47;20.50;53.10
20005;DHT22;69160;45.498;-73.582;2023-04-12T11:49:18;20.80;53.00
20005;DHT22;69160;45.498;-73.582;2023-04-12T11:51:45;20.80;52.80
20005;DHT22;69160;45.498;-73.582;2023-04-12T11:54:12;21.00;53.60
20005;DHT22;69160;45.498;-73.582;2023-04-12T11:56:39;21.00;53.80
20005;DHT22;69160;45.498;-73.582;2023-04-12T11:59:06;21.10;53.50
20005;DHT22;69160;45.498;-73.582;2023-04-12T12:01:36;21.10;53.50
20005;DHT22;69160;45.498;-73.582;2023-04-12T12:04:03;21.00;53.10
20005;DHT22;69160;45.498;-73.582;2023-04-12T12:06:30;20.90;52.60
20005;DHT22;69160;45.498;-73.582;2023-04-12T12:08:57;20.90;52.50
20005;DHT22;69160;45.498;-73.582;2023-04-12T12:11:24;20.90;52.50
20005;DHT22;69160;45.498;-73.582;2023-04-12T12:13:52;20.90;52.40
20005;DHT22;69160;45.498;-73.582;2023-04-12T12:16:26;20.90;52.80
20005;DHT22;69160;45.498;-73.582;2023-04-12T12:18:56;20.90;52.80
20005;DHT22;69160;45.498;-73.582;2023-04-12T12:21:22;21.00;53.70
20005;DHT22;69160;45.498;-73.582;2023-04-12T12:23:48;21.00;54.20
20005;DHT22;69160;45.498;-73.582;2023-04-12T12:26:23;20.90;53.60
20005;DHT22;69160;45.498;-73.582;2023-04-12T12:28:51;21.00;53.50
20005;DHT22;69160;45.498;-73.582;2023-04-12T12:31:19;21.00;53.50
20005;DHT22;69160;45.498;-73.582;2023-04-12T12:33:46;21.00;53.10
20005;DHT22;69160;45.498;-73.582;2023-04-12T12:36:12;21.00;53.50
20005;DHT22;69160;45.498;-73.582;2023-04-12T12:38:40;21.00;53.30
20005;DHT22;69160;45.498;-73.582;2023-04-12T12:41:19;21.00;52.50
20005;DHT22;69160;45.498;-73.582;2023-04-12T12:43:50;21.00;52.50
20005;DHT22;69160;45.498;-73.582;2023-04-12T12:46:17;21.00;52.50
20005;DHT22;69160;45.498;-73.582;2023-04-12T12:48:45;21.00;52.40
20005;DHT22;69160;45.498;-73.582;2023-04-12T12:51:12;21.00;53.60
20005;DHT22;69160;45.498;-73.582;2023-04-12T12:53:40;21.00;53.20
20005;DHT22;69160;45.498;-73.582;2023-04-12T12:56:11;21.00;53.40
20005;DHT22;69160;45.498;-73.582;2023-04-12T12:58:37;21.00;53.00
20005;DHT22;69160;45.498;-73.582;2023-04-12T13:01:03;21.00;52.80
20005;DHT22;69160;45.498;-73.582;2023-04-12T13:03:30;21.00;52.50
20005;DHT22;69160;45.498;-73.582;2023-04-12T13:05:56;21.00;52.40
20005;DHT22;69160;45.498;-73.582;2023-04-12T13:08:23;21.00;52.20
20005;DHT22;69160;45.498;-73.582;2023-04-12T13:10:50;21.00;52.10
20005;DHT22;69160;45.498;-73.582;2023-04-12T13:13:17;21.00;52.30
20005;DHT22;69160;45.498;-73.582;2023-04-12T13:15:44;21.00;55.20
20005;DHT22;69160;45.498;-73.582;2023-04-12T13:18:13;21.10;58.90
20005;DHT22;69160;45.498;-73.582;2023-04-12T13:20:41;21.10;57.00
20005;DHT22;69160;45.498;-73.582;2023-04-12T13:23:07;21.10;56.00
20005;DHT22;69160;45.498;-73.582;2023-04-12T13:25:34;21.10;55.00
20005;DHT22;69160;45.498;-73.582;2023-04-12T13:28:00;21.00;54.20
20005;DHT22;69160;45.498;-73.582;2023-04-12T13:30:26;20.90;53.60
20005;DHT22;69160;45.498;-73.582;2023-04-12T13:32:53;20.90;53.30
20005;DHT22;69160;45.498;-73.582;2023-04-12T13:35:20;20.90;53.00
20005;DHT22;69160;45.498;-73.582;2023-04-12T13:37:46;20.90;53.50
20005;DHT22;69160;45.498;-73.582;2023-04-12T13:40:12;20.90;52.80
20005;DHT22;69160;45.498;-73.582;2023-04-12T13:42:39;20.90;53.80
20005;DHT22;69160;45.498;-73.582;2023-04-12T13:45:05;20.90;53.40
20005;DHT22;69160;45.498;-73.582;2023-04-12T13:47:32;20.80;54.10
20005;DHT22;69160;45.498;-73.582;2023-04-12T13:50:00;20.80;53.60
20005;DHT22;69160;45.498;-73.582;2023-04-12T13:52:26;20.90;53.60
20005;DHT22;69160;45.498;-73.582;2023-04-12T13:54:53;20.90;53.50
20005;DHT22;69160;45.498;-73.582;2023-04-12T13:57:19;20.80;53.00
20005;DHT22;69160;45.498;-73.582;2023-04-12T13:59:46;20.80;52.80
20005;DHT22;69160;45.498;-73.582;2023-04-12T14:02:12;20.80;52.70
20005;DHT22;69160;45.498;-73.582;2023-04-12T14:04:49;20.80;52.60
20005;DHT22;69160;45.498;-73.582;2023-04-12T14:07:16;20.80;52.60
20005;DHT22;69160;45.498;-73.582;2023-04-12T14:09:42;20.80;52.50
20005;DHT22;69160;45.498;-73.582;2023-04-12T14:12:09;20.80;52.40
20005;DHT22;69160;45.498;-73.582;2023-04-12T14:14:35;20.80;52.50
20005;DHT22;69160;45.498;-73.582;2023-04-12T14:17:01;20.80;52.30
20005;DHT22;69160;45.498;-73.582;2023-04-12T14:19:28;20.80;52.30
20005;DHT22;69160;45.498;-73.582;2023-04-12T14:21:54;20.80;52.30
20005;DHT22;69160;45.498;-73.582;2023-04-12T14:24:21;20.80;52.30
20005;DHT22;69160;45.498;-73.582;2023-04-12T14:26:47;20.80;52.30
20005;DHT22;69160;45.498;-73.582;2023-04-12T14:29:15;20.80;52.30
20005;DHT22;69160;45.498;-73.582;2023-04-12T14:31:42;20.80;52.40
20005;DHT22;69160;45.498;-73.582;2023-04-12T14:34:08;20.80;52.10
20005;DHT22;69160;45.498;-73.582;2023-04-12T14:36:35;20.80;52.70
20005;DHT22;69160;45.498;-73.582;2023-04-12T14:39:01;20.90;53.00
20005;DHT22;69160;45.498;-73.582;2023-04-12T14:41:31;20.90;52.50
20005;DHT22;69160;45.498;-73.582;2023-04-12T14:44:00;20.80;52.30
20005;DHT22;69160;45.498;-73.582;2023-04-12T14:46:27;20.80;51.60
20005;DHT22;69160;45.498;-73.582;2023-04-12T14:48:53;20.80;51.90
20005;DHT22;69160;45.498;-73.582;2023-04-12T14:51:21;20.80;51.80
20005;DHT22;69160;45.498;-73.582;2023-04-12T14:53:47;20.80;52.00
20005;DHT22;69160;45.498;-73.582;2023-04-12T14:56:20;20.90;52.00
20005;DHT22;69160;45.498;-73.582;2023-04-12T14:58:47;20.80;51.70
20005;DHT22;69160;45.498;-73.582;2023-04-12T15:01:13;20.80;51.70
20005;DHT22;69160;45.498;-73.582;2023-04-12T15:03:41;20.80;51.70
20005;DHT22;69160;45.498;-73.582;2023-04-12T15:06:08;20.80;51.70
20005;DHT22;69160;45.498;-73.582;2023-04-12T15:08:37;20.80;51.70
20005;DHT22;69160;45.498;-73.582;2023-04-12T15:11:11;20.80;51.80
20005;DHT22;69160;45.498;-73.582;2023-04-12T15:13:40;20.80;51.90
20005;DHT22;69160;45.498;-73.582;2023-04-12T15:16:09;20.80;52.10
20005;DHT22;69160;45.498;-73.582;2023-04-12T15:18:40;20.80;52.20
20005;DHT22;69160;45.498;-73.582;2023-04-12T15:21:10;20.80;52.30
20005;DHT22;69160;45.498;-73.582;2023-04-12T15:23:38;20.80;52.50
20005;DHT22;69160;45.498;-73.582;2023-04-12T15:26:05;20.80;52.60
20005;DHT22;69160;45.498;-73.582;2023-04-12T15:28:34;20.90;53.00
20005;DHT22;69160;45.498;-73.582;2023-04-12T15:31:01;20.90;53.30
20005;DHT22;69160;45.498;-73.582;2023-04-12T15:33:27;20.90;53.10